createdAt,value
2018-08-24T00:00:19.865Z,17.53
2018-08-24T00:02:48.661Z,12.90
2018-08-24T00:05:17.373Z,13.10
2018-08-24T00:07:46.189Z,19.60
2018-08-24T00:10:14.892Z,14.90
2018-08-24T00:12:43.573Z,15.10
2018-08-24T00:15:12.195Z,13.00
2018-08-24T00:17:45.048Z,16.13
2018-08-24T00:20:13.751Z,16.13
2018-08-24T00:22:42.802Z,15.83
2018-08-24T00:25:11.465Z,15.10
2018-08-24T00:27:41.328Z,17.10
2018-08-24T00:30:10.095Z,14.30
2018-08-24T00:32:38.822Z,13.33
2018-08-24T00:35:08.372Z,14.60
2018-08-24T00:37:37.017Z,22.30
2018-08-24T00:40:05.973Z,17.67
2018-08-24T00:42:34.880Z,13.77
2018-08-24T00:45:03.540Z,15.60
2018-08-24T00:47:33.228Z,15.57
2018-08-24T00:50:01.933Z,20.07
2018-08-24T00:52:30.601Z,17.80
2018-08-24T00:54:59.269Z,21.40
2018-08-24T00:57:27.989Z,14.57
2018-08-24T00:59:56.666Z,13.97
2018-08-24T01:02:25.499Z,14.07
2018-08-24T01:04:55.317Z,15.60
2018-08-24T01:07:24.921Z,14.33
2018-08-24T01:09:53.530Z,14.70
2018-08-24T01:12:22.205Z,13.47
2018-08-24T01:14:50.763Z,13.17
2018-08-24T01:17:25.276Z,13.00
2018-08-24T01:19:53.966Z,12.23
2018-08-24T01:22:22.912Z,11.97
2018-08-24T01:24:51.468Z,13.57
2018-08-24T01:27:20.460Z,14.10
2018-08-24T01:29:49.187Z,13.57
2018-08-24T01:32:17.834Z,14.87
2018-08-24T01:34:46.521Z,16.97
2018-08-24T01:37:15.161Z,11.70
2018-08-24T01:39:44.260Z,14.57
2018-08-24T01:42:12.817Z,14.37
2018-08-24T01:44:41.413Z,13.27
2018-08-24T01:47:10.208Z,17.40
2018-08-24T01:49:39.182Z,12.13
2018-08-24T01:52:07.824Z,12.30
2018-08-24T01:54:36.536Z,15.13
2018-08-24T01:57:05.355Z,15.13
2018-08-24T01:59:33.931Z,15.57
2018-08-24T02:02:02.636Z,13.00
2018-08-24T02:04:31.328Z,14.43
2018-08-24T02:06:59.948Z,19.70
2018-08-24T02:09:28.600Z,16.70
2018-08-24T02:11:57.226Z,15.15
2018-08-24T02:14:31.129Z,12.47
2018-08-24T02:16:59.862Z,14.60
2018-08-24T02:19:34.018Z,15.17
2018-08-24T02:22:07.837Z,13.57
2018-08-24T02:24:36.481Z,19.63
2018-08-24T02:27:05.173Z,12.90
2018-08-24T02:29:34.182Z,13.30
2018-08-24T02:32:02.853Z,12.33
2018-08-24T02:34:31.718Z,17.23
2018-08-24T02:37:00.457Z,12.40
2018-08-24T02:39:30.233Z,15.80
2018-08-24T02:42:00.065Z,22.70
2018-08-24T02:44:28.684Z,24.83
2018-08-24T02:46:57.644Z,18.07
2018-08-24T02:49:26.408Z,14.33
2018-08-24T02:51:55.172Z,20.53
2018-08-24T02:54:24.048Z,17.63
2018-08-24T02:56:53.887Z,15.93
2018-08-24T02:59:22.701Z,20.20
2018-08-24T03:01:51.621Z,17.20
2018-08-24T03:04:20.347Z,19.43
2018-08-24T03:06:49.153Z,18.60
2018-08-24T03:09:19.557Z,15.43
2018-08-24T03:11:48.312Z,13.23
2018-08-24T03:14:17.062Z,15.33
2018-08-24T03:16:51.041Z,20.83
2018-08-24T03:19:19.685Z,18.63
2018-08-24T03:21:48.863Z,15.43
2018-08-24T03:24:17.695Z,21.73
2018-08-24T03:26:46.334Z,18.63
2018-08-24T03:29:15.182Z,25.90
2018-08-24T03:31:44.522Z,17.37
2018-08-24T03:34:13.485Z,18.03
2018-08-24T03:36:42.218Z,18.13
2018-08-24T03:39:11.123Z,21.30
2018-08-24T03:41:40.049Z,24.23
2018-08-24T03:44:08.958Z,19.67
2018-08-24T03:46:37.605Z,18.20
2018-08-24T03:49:06.409Z,15.33
2018-08-24T03:51:35.049Z,17.60
2018-08-24T03:54:07.929Z,19.20
2018-08-24T03:56:36.824Z,21.77
2018-08-24T03:59:05.791Z,22.03
2018-08-24T04:01:34.457Z,17.97
2018-08-24T04:04:03.860Z,19.17
2018-08-24T04:06:33.001Z,18.30
2018-08-24T04:09:01.657Z,15.17
2018-08-24T04:11:30.392Z,20.37
2018-08-24T04:13:59.283Z,20.83
2018-08-24T04:16:28.072Z,21.30
2018-08-24T04:18:56.844Z,19.33
2018-08-24T04:24:46.689Z,22.77
2018-08-24T04:27:15.377Z,18.37
2018-08-24T04:29:44.072Z,20.27
2018-08-24T04:32:12.848Z,18.70
2018-08-24T04:34:41.497Z,22.77
2018-08-24T04:37:10.104Z,23.40
2018-08-24T04:39:39.024Z,20.60
2018-08-24T04:42:07.636Z,20.90
2018-08-24T04:44:36.310Z,19.37
2018-08-24T04:47:04.973Z,20.10
2018-08-24T04:49:33.852Z,21.73
2018-08-24T04:52:02.517Z,27.63
2018-08-24T04:54:31.248Z,26.00
2018-08-24T04:56:59.973Z,31.67
2018-08-24T04:59:28.647Z,18.87
2018-08-24T05:01:57.414Z,18.20
2018-08-24T05:04:26.299Z,16.10
2018-08-24T05:06:54.956Z,23.23
2018-08-24T05:09:23.653Z,24.13
2018-08-24T05:11:55.349Z,22.47
2018-08-24T05:14:24.028Z,31.57
2018-08-24T05:16:52.585Z,18.30
2018-08-24T05:19:21.348Z,22.47
2018-08-24T05:21:50.265Z,20.27
2018-08-24T05:24:18.937Z,29.03
2018-08-24T05:26:47.536Z,27.43
2018-08-24T05:29:16.222Z,30.67
2018-08-24T05:31:44.978Z,25.03
2018-08-24T05:34:14.441Z,29.03
2018-08-24T05:36:43.640Z,29.80
2018-08-24T05:39:12.333Z,31.17
2018-08-24T05:41:41.017Z,18.73
2018-08-24T05:44:09.682Z,25.03
2018-08-24T05:46:38.538Z,22.53
2018-08-24T05:49:07.169Z,21.80
2018-08-24T05:51:35.781Z,19.10
2018-08-24T05:54:04.456Z,22.97
2018-08-24T05:56:33.120Z,18.47
2018-08-24T05:59:02.022Z,18.80
2018-08-24T06:01:30.730Z,12.93
2018-08-24T06:03:59.326Z,15.73
2018-08-24T06:06:28.018Z,13.43
2018-08-24T06:09:02.105Z,16.43
2018-08-24T06:11:30.946Z,15.77
2018-08-24T06:14:01.302Z,14.23
2018-08-24T06:16:30.023Z,16.50
2018-08-24T06:18:58.708Z,21.77
2018-08-24T06:21:27.422Z,12.77
2018-08-24T06:23:56.193Z,14.30
2018-08-24T06:26:24.825Z,15.00
2018-08-24T06:28:53.388Z,14.07
2018-08-24T06:31:22.085Z,11.67
2018-08-24T06:33:50.710Z,11.37
2018-08-24T06:39:40.133Z,16.37
2018-08-24T06:42:08.768Z,11.63
2018-08-24T06:44:37.588Z,11.20
2018-08-24T06:47:06.560Z,15.23
2018-08-24T06:49:35.216Z,13.57
2018-08-24T06:52:03.888Z,13.07
2018-08-24T06:54:32.492Z,16.33
2018-08-24T06:57:01.288Z,14.10
2018-08-24T06:59:29.976Z,14.13
2018-08-24T07:01:59.580Z,10.83
2018-08-24T07:04:28.289Z,11.37
2018-08-24T07:06:56.974Z,15.17
2018-08-24T07:09:25.670Z,15.43
2018-08-24T07:11:54.322Z,9.87
2018-08-24T07:14:23.087Z,11.03
2018-08-24T07:17:01.991Z,15.23
2018-08-24T07:19:31.580Z,13.10
2018-08-24T07:22:00.712Z,12.60
2018-08-24T07:24:30.003Z,10.17
2018-08-24T07:26:58.689Z,16.30
2018-08-24T07:29:28.876Z,11.80
2018-08-24T07:31:57.596Z,13.27
2018-08-24T07:34:26.279Z,12.23
2018-08-24T07:36:55.105Z,12.23
2018-08-24T07:39:23.897Z,10.67
2018-08-24T07:41:52.678Z,10.10
2018-08-24T07:44:21.299Z,16.97
2018-08-24T07:46:50.012Z,8.47
2018-08-24T07:49:19.397Z,10.53
2018-08-24T07:51:48.185Z,10.57
2018-08-24T07:54:17.009Z,11.43
2018-08-24T07:56:45.626Z,9.87
2018-08-24T07:59:14.497Z,10.13
2018-08-24T08:01:43.740Z,10.30
2018-08-24T08:04:12.438Z,14.50
2018-08-24T08:06:41.357Z,12.57
2018-08-24T08:09:10.067Z,11.27
2018-08-24T08:11:40.938Z,11.97
2018-08-24T08:14:10.339Z,10.57
2018-08-24T08:16:39.005Z,7.73
2018-08-24T08:19:07.717Z,13.03
2018-08-24T08:21:36.384Z,12.60
2018-08-24T08:24:05.133Z,10.93
2018-08-24T08:26:34.947Z,13.37
2018-08-24T08:29:03.593Z,20.40
2018-08-24T08:31:32.333Z,13.93
2018-08-24T08:34:01.610Z,17.13
2018-08-24T08:36:30.306Z,16.23
2018-08-24T08:39:00.087Z,16.73
2018-08-24T08:41:28.768Z,20.43
2018-08-24T08:44:04.689Z,18.60
2018-08-24T08:46:33.702Z,22.30
2018-08-24T08:49:03.360Z,25.37
2018-08-24T08:51:32.285Z,24.33
2018-08-24T08:54:01.426Z,23.23
2018-08-24T08:56:30.245Z,19.80
2018-08-24T08:58:59.117Z,17.63
2018-08-24T09:01:27.843Z,18.57
2018-08-24T09:03:56.556Z,16.83
2018-08-24T09:06:25.776Z,17.37
2018-08-24T09:08:54.383Z,14.40
2018-08-24T09:11:23.124Z,25.63
2018-08-24T09:13:52.340Z,16.33
2018-08-24T09:16:20.934Z,19.10
2018-08-24T09:18:55.029Z,18.93
2018-08-24T09:21:28.909Z,16.23
2018-08-24T09:24:02.972Z,18.20
2018-08-24T09:26:36.944Z,9.27
2018-08-24T09:29:10.865Z,12.93
2018-08-24T09:31:41.435Z,11.17
2018-08-24T09:34:10.164Z,13.30
2018-08-24T09:36:38.847Z,10.13
2018-08-24T09:39:09.004Z,11.03
2018-08-24T09:41:37.874Z,14.73
2018-08-24T09:44:06.754Z,11.20
2018-08-24T09:46:40.757Z,8.83
2018-08-24T09:49:14.900Z,8.63
2018-08-24T09:51:43.525Z,9.67
2018-08-24T09:54:12.197Z,7.80
2018-08-24T09:56:41.412Z,8.10
2018-08-24T09:59:11.212Z,8.53
2018-08-24T10:01:45.116Z,8.40
2018-08-24T10:04:19.000Z,9.43
2018-08-24T10:06:53.416Z,9.07
2018-08-24T10:09:22.042Z,10.57
2018-08-24T10:11:50.699Z,7.07
2018-08-24T10:14:19.392Z,10.87
2018-08-24T10:16:48.001Z,8.57
2018-08-24T10:19:16.760Z,9.87
2018-08-24T10:21:45.425Z,8.67
2018-08-24T10:24:14.188Z,9.50
2018-08-24T10:26:42.849Z,8.73
2018-08-24T10:29:11.611Z,7.67
2018-08-24T10:31:41.394Z,6.90
2018-08-24T10:34:10.061Z,8.93
2018-08-24T10:36:38.785Z,8.30
2018-08-24T10:39:09.375Z,9.63
2018-08-24T10:41:38.405Z,7.70
2018-08-24T10:44:07.204Z,7.70
2018-08-24T10:51:02.060Z,9.07
2018-08-24T10:53:30.945Z,10.10
2018-08-24T10:55:59.864Z,7.83
2018-08-24T10:58:28.614Z,7.83
2018-08-24T11:00:57.308Z,7.53
2018-08-24T11:03:25.996Z,8.80
2018-08-24T11:05:54.961Z,7.10
2018-08-24T11:08:24.565Z,7.43
2018-08-24T11:10:53.249Z,8.70
2018-08-24T11:13:22.123Z,8.63
2018-08-24T11:15:51.802Z,6.93
2018-08-24T11:18:20.470Z,8.03
2018-08-24T11:20:49.405Z,9.33
2018-08-24T11:23:18.540Z,9.50
2018-08-24T11:25:47.306Z,10.33
2018-08-24T11:28:15.983Z,7.87
2018-08-24T11:30:44.573Z,7.97
2018-08-24T11:33:13.331Z,9.27
2018-08-24T11:35:42.105Z,12.77
2018-08-24T11:38:11.849Z,8.13
2018-08-24T11:40:41.110Z,7.77
2018-08-24T11:43:09.833Z,7.03
2018-08-24T11:45:38.508Z,7.20
2018-08-24T11:48:07.192Z,8.43
2018-08-24T11:50:35.885Z,11.73
2018-08-24T11:53:04.690Z,10.00
2018-08-24T11:55:33.742Z,7.00
2018-08-24T11:58:02.537Z,9.60
2018-08-24T12:00:32.680Z,7.70
2018-08-24T12:03:02.539Z,8.17
2018-08-24T12:05:31.654Z,7.93
2018-08-24T12:08:00.680Z,11.83
2018-08-24T12:10:29.478Z,7.23
2018-08-24T12:12:58.647Z,10.03
2018-08-24T12:15:27.408Z,8.27
2018-08-24T12:17:56.677Z,8.30
2018-08-24T12:20:25.448Z,9.17
2018-08-24T12:22:54.705Z,12.37
2018-08-24T12:25:23.418Z,9.50
2018-08-24T12:27:52.120Z,9.47
2018-08-24T12:30:20.814Z,9.53
2018-08-24T12:36:13.433Z,36.70
2018-08-24T12:38:42.415Z,26.67
2018-08-24T12:41:11.820Z,14.57
2018-08-24T12:43:40.560Z,17.40
2018-08-24T12:46:09.570Z,12.50
2018-08-24T12:48:38.517Z,13.03
2018-08-24T12:51:07.104Z,13.13
2018-08-24T12:53:36.657Z,12.73
2018-08-24T12:56:08.849Z,14.47
2018-08-24T12:58:37.570Z,10.50
2018-08-24T13:01:06.273Z,10.40
2018-08-24T13:03:35.048Z,9.37
2018-08-24T13:06:03.985Z,8.17
2018-08-24T13:08:32.884Z,10.23
2018-08-24T13:11:01.521Z,11.03
2018-08-24T13:13:30.232Z,5.00
2018-08-24T13:15:59.133Z,5.23
2018-08-24T13:18:27.890Z,5.53
2018-08-24T13:20:56.851Z,5.03
2018-08-24T13:23:25.679Z,5.30
2018-08-24T13:25:54.826Z,5.67
2018-08-24T13:28:23.517Z,4.67
2018-08-24T13:30:52.414Z,6.87
2018-08-24T13:33:21.256Z,4.70
2018-08-24T13:35:49.961Z,7.00
2018-08-24T13:38:19.689Z,3.63
2018-08-24T13:40:48.499Z,4.10
2018-08-24T13:43:17.296Z,3.50
2018-08-24T13:45:45.957Z,5.77
2018-08-24T13:48:14.669Z,5.90
2018-08-24T13:50:43.957Z,6.43
2018-08-24T13:53:12.694Z,5.60
2018-08-24T13:55:41.486Z,4.10
2018-08-24T13:58:10.290Z,3.50
2018-08-24T14:00:38.973Z,4.57
2018-08-24T14:03:07.600Z,4.87
2018-08-24T14:05:36.334Z,3.90
2018-08-24T14:08:04.970Z,3.97
2018-08-24T14:10:33.918Z,3.77
2018-08-24T14:13:02.639Z,4.50
2018-08-24T14:15:31.199Z,3.90
2018-08-24T14:17:59.801Z,4.23
2018-08-24T14:20:28.561Z,6.90
2018-08-24T14:22:57.170Z,6.97
2018-08-24T14:25:25.927Z,5.77
2018-08-24T14:27:54.648Z,5.13
2018-08-24T14:30:23.359Z,5.20
2018-08-24T14:32:52.144Z,6.40
2018-08-24T14:35:20.789Z,4.80
2018-08-24T14:37:50.221Z,6.37
2018-08-24T14:40:19.135Z,5.00
2018-08-24T14:42:47.790Z,4.87
2018-08-24T14:45:16.487Z,6.23
2018-08-24T14:47:46.180Z,5.57
2018-08-24T14:50:14.791Z,6.13
2018-08-24T14:52:43.525Z,4.53
2018-08-24T14:55:12.298Z,4.85
2018-08-24T14:57:41.316Z,4.37
2018-08-24T15:00:09.947Z,7.15
2018-08-24T15:02:38.795Z,4.65
2018-08-24T15:05:09.437Z,4.83
2018-08-24T15:07:38.188Z,7.00
2018-08-24T15:10:07.272Z,5.37
2018-08-24T15:12:35.826Z,5.62
2018-08-24T15:15:04.681Z,5.70
2018-08-24T15:17:33.561Z,6.53
2018-08-24T15:20:03.695Z,7.13
2018-08-24T15:22:32.820Z,6.30
2018-08-24T15:25:01.572Z,7.03
2018-08-24T15:27:30.710Z,7.17
2018-08-24T15:29:59.461Z,12.07
2018-08-24T15:32:28.142Z,8.00
2018-08-24T15:34:57.178Z,8.90
2018-08-24T15:37:26.075Z,8.93
2018-08-24T15:39:54.927Z,9.47
2018-08-24T15:42:23.650Z,9.80
2018-08-24T15:44:52.282Z,9.30
2018-08-24T15:47:21.233Z,10.23
2018-08-24T15:49:49.975Z,8.73
2018-08-24T15:52:18.761Z,12.80
2018-08-24T15:54:47.622Z,11.00
2018-08-24T15:57:16.198Z,10.63
2018-08-24T15:59:44.785Z,11.03
2018-08-24T16:02:13.456Z,13.37
2018-08-24T16:04:42.161Z,11.93
2018-08-24T16:07:10.845Z,13.30
2018-08-24T16:09:39.558Z,13.93
2018-08-24T16:12:08.674Z,13.98
2018-08-24T16:14:37.286Z,20.70
2018-08-24T16:17:06.512Z,24.20
2018-08-24T16:19:35.214Z,30.13
2018-08-24T16:25:25.365Z,28.13
2018-08-24T16:27:54.201Z,35.00
2018-08-24T16:30:22.928Z,39.03
2018-08-24T16:32:51.579Z,54.00
2018-08-24T16:35:20.506Z,54.70
2018-08-24T16:37:50.267Z,54.47
2018-08-24T16:40:19.258Z,49.53
2018-08-24T16:42:48.697Z,45.83
2018-08-24T16:45:17.347Z,43.80
2018-08-24T16:47:47.419Z,50.40
2018-08-24T16:50:16.323Z,48.80
2018-08-24T16:52:44.980Z,50.27
2018-08-24T16:55:14.919Z,55.00
2018-08-24T16:57:43.621Z,56.57
2018-08-24T17:00:12.361Z,65.10
2018-08-24T17:02:41.159Z,62.00
2018-08-24T17:05:09.861Z,61.50
2018-08-24T17:07:38.580Z,69.37
2018-08-24T17:10:08.640Z,90.87
2018-08-24T17:12:37.543Z,81.30
2018-08-24T17:15:06.651Z,83.77
2018-08-24T17:17:35.461Z,79.80
2018-08-24T17:20:05.237Z,56.63
2018-08-24T17:22:34.075Z,57.67
2018-08-24T17:25:03.438Z,50.43
2018-08-24T17:27:32.100Z,48.30
2018-08-24T17:30:00.755Z,55.27
2018-08-24T17:32:29.445Z,71.63
2018-08-24T17:34:58.182Z,91.73
2018-08-24T17:37:27.077Z,79.30
2018-08-24T17:39:55.778Z,91.60
2018-08-24T17:42:24.648Z,79.50
2018-08-24T17:44:53.388Z,81.80
2018-08-24T17:47:23.153Z,83.17
2018-08-24T17:49:52.837Z,82.53
2018-08-24T17:52:21.446Z,86.03
2018-08-24T17:54:50.129Z,86.40
2018-08-24T17:57:19.380Z,89.20
2018-08-24T17:59:48.073Z,98.47
2018-08-24T18:02:16.969Z,91.87
2018-08-24T18:04:45.828Z,96.43
2018-08-24T18:07:14.587Z,98.13
2018-08-24T18:09:43.925Z,89.43
2018-08-24T18:12:13.621Z,94.03
2018-08-24T18:14:42.299Z,89.20
2018-08-24T18:17:10.934Z,87.00
2018-08-24T18:19:39.592Z,98.57
2018-08-24T18:22:08.550Z,89.17
2018-08-24T18:24:38.240Z,86.30
2018-08-24T18:27:07.042Z,81.00
2018-08-24T18:29:35.752Z,80.37
2018-08-24T18:32:04.441Z,75.63
2018-08-24T18:34:33.075Z,64.67
2018-08-24T18:37:01.687Z,56.87
2018-08-24T18:39:31.349Z,59.63
2018-08-24T18:42:00.035Z,57.77
2018-08-24T18:44:28.653Z,51.93
2018-08-24T18:46:57.973Z,46.80
2018-08-24T18:49:26.726Z,47.73
2018-08-24T18:51:57.400Z,54.70
2018-08-24T18:54:26.125Z,48.33
2018-08-24T18:56:54.876Z,51.90
2018-08-24T18:59:23.829Z,55.70
2018-08-24T19:01:53.405Z,58.23
2018-08-24T19:04:22.173Z,54.93
2018-08-24T19:06:50.904Z,52.10
2018-08-24T19:09:19.625Z,49.00
2018-08-24T19:11:53.473Z,48.73
2018-08-24T19:14:22.290Z,47.20
2018-08-24T19:16:51.010Z,41.03
2018-08-24T19:19:25.639Z,41.43
2018-08-24T19:21:58.686Z,45.80
2018-08-24T19:24:27.441Z,44.50
2018-08-24T19:26:56.147Z,49.47
2018-08-24T19:29:31.129Z,47.20
2018-08-24T19:31:59.842Z,52.83
2018-08-24T19:34:28.596Z,48.70
2018-08-24T19:36:57.316Z,46.17
2018-08-24T19:39:25.987Z,53.93
2018-08-24T19:41:59.983Z,50.03
2018-08-24T19:44:28.713Z,58.13
2018-08-24T19:46:57.553Z,63.60
2018-08-24T19:49:26.527Z,74.17
2018-08-24T19:51:55.312Z,76.00
2018-08-24T19:54:24.571Z,76.17
2018-08-24T19:56:53.273Z,84.33
2018-08-24T19:59:22.021Z,81.63
2018-08-24T20:01:50.665Z,91.47
2018-08-24T20:04:19.382Z,102.47
2018-08-24T20:06:53.272Z,89.37
2018-08-24T20:09:27.091Z,97.87
2018-08-24T20:11:55.865Z,91.47
2018-08-24T20:14:29.912Z,103.70
2018-08-24T20:17:04.651Z,102.03
2018-08-24T20:19:33.515Z,83.50
2018-08-24T20:22:02.178Z,97.37
2018-08-24T20:24:31.159Z,92.33
2018-08-24T20:26:59.708Z,96.30
2018-08-24T20:29:28.460Z,89.83
2018-08-24T20:31:57.172Z,98.10
2018-08-24T20:34:25.789Z,93.27
2018-08-24T20:36:54.539Z,104.60
2018-08-24T20:39:23.226Z,105.70
2018-08-24T20:41:52.164Z,108.93
2018-08-24T20:44:21.646Z,113.07
2018-08-24T20:46:50.407Z,122.00
2018-08-24T20:49:19.563Z,132.83
2018-08-24T20:51:48.406Z,122.27
2018-08-24T20:54:17.078Z,113.57
2018-08-24T21:00:50.105Z,138.23
2018-08-24T21:03:18.848Z,124.20
2018-08-24T21:05:47.642Z,119.77
2018-08-24T21:08:16.225Z,128.63
2018-08-24T21:10:44.953Z,118.07
2018-08-24T21:13:13.561Z,121.60
2018-08-24T21:15:42.271Z,116.23
2018-08-24T21:18:11.131Z,126.27
2018-08-24T21:20:39.841Z,120.50
2018-08-24T21:23:08.752Z,128.23
2018-08-24T21:25:37.477Z,132.70
2018-08-24T21:28:07.258Z,144.13
2018-08-24T21:30:36.982Z,140.13
2018-08-24T21:33:06.105Z,144.13
2018-08-24T21:35:35.878Z,173.17
2018-08-24T21:38:04.664Z,170.43
2018-08-24T21:40:33.281Z,179.03
2018-08-24T21:43:01.960Z,185.17
2018-08-24T21:45:31.521Z,183.63
2018-08-24T21:48:01.004Z,175.53
2018-08-24T21:50:30.359Z,186.30
2018-08-24T21:52:59.103Z,147.57
2018-08-24T21:55:27.878Z,158.77
2018-08-24T21:57:57.472Z,146.23
2018-08-24T22:00:26.740Z,136.50
2018-08-24T22:02:55.446Z,87.23
2018-08-24T22:05:24.117Z,74.73
2018-08-24T22:07:53.017Z,58.33
2018-08-24T22:10:21.772Z,52.33
2018-08-24T22:12:50.576Z,43.67
2018-08-24T22:15:20.974Z,37.53
2018-08-24T22:17:50.922Z,31.70
2018-08-24T22:20:21.466Z,28.07
2018-08-24T22:22:52.497Z,29.67
2018-08-24T22:25:21.284Z,30.20
2018-08-24T22:27:50.028Z,30.87
2018-08-24T22:30:18.843Z,31.13
2018-08-24T22:32:48.794Z,32.80
2018-08-24T22:35:17.618Z,32.13
2018-08-24T22:37:46.308Z,31.63
2018-08-24T22:40:14.922Z,34.00
2018-08-24T22:42:44.287Z,36.63
2018-08-24T22:45:14.280Z,30.73
2018-08-24T22:47:43.040Z,35.00
2018-08-24T22:50:11.724Z,34.93
2018-08-24T22:52:40.919Z,35.00
2018-08-24T22:55:10.156Z,35.50
2018-08-24T22:57:38.831Z,33.23
2018-08-24T23:00:07.698Z,34.37
2018-08-24T23:02:36.415Z,36.70
2018-08-24T23:05:05.184Z,35.70
2018-08-24T23:07:33.860Z,34.23
2018-08-24T23:10:02.472Z,36.33
2018-08-24T23:12:31.191Z,35.40
2018-08-24T23:14:59.921Z,45.13
2018-08-24T23:17:28.584Z,36.17
2018-08-24T23:19:57.399Z,35.70
2018-08-24T23:22:26.121Z,29.70
2018-08-24T23:24:54.745Z,25.63
2018-08-24T23:27:23.647Z,27.87
2018-08-24T23:29:52.525Z,23.03
2018-08-24T23:32:21.145Z,17.03
2018-08-24T23:34:49.982Z,18.13
2018-08-24T23:37:18.708Z,17.07
2018-08-24T23:39:47.712Z,15.70
2018-08-24T23:42:16.448Z,15.93
2018-08-24T23:44:45.179Z,15.00
2018-08-24T23:47:13.867Z,17.90
2018-08-24T23:49:42.537Z,15.23
2018-08-24T23:52:11.444Z,16.20
2018-08-24T23:54:40.129Z,16.30
2018-08-24T23:57:08.722Z,14.53
2018-08-24T23:59:37.581Z,13.90
